sensor_id;sensor_type;location;lat;lon;timestamp;P1;durP1;ratioP1;P2;durP2;ratioP2
38865;SDS011;62686;48.984;8.394;2022-10-17T00:00:49;12.67;;;7.63;;
38865;SDS011;62686;48.984;8.394;2022-10-17T00:03:17;10.80;;;7.40;;
38865;SDS011;62686;48.984;8.394;2022-10-17T00:05:46;13.77;;;7.70;;
38865;SDS011;62686;48.984;8.394;2022-10-17T00:08:15;15.33;;;7.53;;
38865;SDS011;62686;48.984;8.394;2022-10-17T00:10:45;10.43;;;7.07;;
38865;SDS011;62686;48.984;8.394;2022-10-17T00:13:24;9.27;;;6.97;;
38865;SDS011;62686;48.984;8.394;2022-10-17T00:15:53;11.50;;;7.57;;
38865;SDS011;62686;48.984;8.394;2022-10-17T00:18:21;11.93;;;7.47;;
38865;SDS011;62686;48.984;8.394;2022-10-17T00:20:49;12.87;;;7.43;;
38865;SDS011;62686;48.984;8.394;2022-10-17T00:23:18;10.40;;;6.80;;
38865;SDS011;62686;48.984;8.394;2022-10-17T00:25:46;13.40;;;6.90;;
38865;SDS011;62686;48.984;8.394;2022-10-17T00:28:15;10.50;;;7.20;;
38865;SDS011;62686;48.984;8.394;2022-10-17T00:30:43;9.80;;;6.30;;
38865;SDS011;62686;48.984;8.394;2022-10-17T00:33:11;9.60;;;6.60;;
38865;SDS011;62686;48.984;8.394;2022-10-17T00:35:39;12.73;;;6.57;;
38865;SDS011;62686;48.984;8.394;2022-10-17T00:38:07;12.73;;;6.70;;
38865;SDS011;62686;48.984;8.394;2022-10-17T00:40:35;9.03;;;5.90;;
38865;SDS011;62686;48.984;8.394;2022-10-17T00:43:03;14.90;;;6.80;;
38865;SDS011;62686;48.984;8.394;2022-10-17T00:45:39;11.57;;;6.27;;
38865;SDS011;62686;48.984;8.394;2022-10-17T00:48:07;9.93;;;6.30;;
38865;SDS011;62686;48.984;8.394;2022-10-17T00:50:37;12.07;;;6.47;;
38865;SDS011;62686;48.984;8.394;2022-10-17T00:53:07;10.37;;;5.97;;
38865;SDS011;62686;48.984;8.394;2022-10-17T00:55:37;11.07;;;6.50;;
38865;SDS011;62686;48.984;8.394;2022-10-17T00:58:11;14.60;;;7.70;;
38865;SDS011;62686;48.984;8.394;2022-10-17T01:00:41;10.17;;;6.17;;
38865;SDS011;62686;48.984;8.394;2022-10-17T01:03:10;13.67;;;6.87;;
38865;SDS011;62686;48.984;8.394;2022-10-17T01:05:38;12.23;;;6.10;;
38865;SDS011;62686;48.984;8.394;2022-10-17T01:08:08;11.80;;;6.30;;
38865;SDS011;62686;48.984;8.394;2022-10-17T01:10:39;14.87;;;6.50;;
38865;SDS011;62686;48.984;8.394;2022-10-17T01:13:17;15.07;;;6.53;;
38865;SDS011;62686;48.984;8.394;2022-10-17T01:15:57;11.33;;;5.60;;
38865;SDS011;62686;48.984;8.394;2022-10-17T01:18:37;12.93;;;6.53;;
38865;SDS011;62686;48.984;8.394;2022-10-17T01:21:27;9.17;;;5.83;;
38865;SDS011;62686;48.984;8.394;2022-10-17T01:30:04;6.93;;;5.83;;
38865;SDS011;62686;48.984;8.394;2022-10-17T01:32:57;11.10;;;6.60;;
38865;SDS011;62686;48.984;8.394;2022-10-17T01:35:30;10.60;;;6.03;;
38865;SDS011;62686;48.984;8.394;2022-10-17T01:38:05;8.33;;;5.90;;
38865;SDS011;62686;48.984;8.394;2022-10-17T01:40:38;7.00;;;6.17;;
38865;SDS011;62686;48.984;8.394;2022-10-17T01:43:12;12.93;;;7.33;;
38865;SDS011;62686;48.984;8.394;2022-10-17T01:45:45;13.50;;;6.70;;
38865;SDS011;62686;48.984;8.394;2022-10-17T01:48:21;10.10;;;6.97;;
38865;SDS011;62686;48.984;8.394;2022-10-17T01:50:52;11.73;;;7.00;;
38865;SDS011;62686;48.984;8.394;2022-10-17T01:53:26;11.10;;;6.60;;
38865;SDS011;62686;48.984;8.394;2022-10-17T01:55:59;11.77;;;6.67;;
38865;SDS011;62686;48.984;8.394;2022-10-17T01:58:30;13.67;;;6.07;;
38865;SDS011;62686;48.984;8.394;2022-10-17T02:01:03;14.40;;;7.00;;
38865;SDS011;62686;48.984;8.394;2022-10-17T02:03:35;9.30;;;6.50;;
38865;SDS011;62686;48.984;8.394;2022-10-17T02:06:04;10.67;;;6.50;;
38865;SDS011;62686;48.984;8.394;2022-10-17T02:08:39;10.43;;;6.63;;
38865;SDS011;62686;48.984;8.394;2022-10-17T02:11:10;13.47;;;6.10;;
38865;SDS011;62686;48.984;8.394;2022-10-17T02:13:47;8.87;;;6.17;;
38865;SDS011;62686;48.984;8.394;2022-10-17T02:16:38;10.97;;;6.17;;
38865;SDS011;62686;48.984;8.394;2022-10-17T02:19:15;15.80;;;7.07;;
38865;SDS011;62686;48.984;8.394;2022-10-17T02:21:59;10.60;;;6.10;;
38865;SDS011;62686;48.984;8.394;2022-10-17T02:24:38;11.97;;;6.07;;
38865;SDS011;62686;48.984;8.394;2022-10-17T02:27:14;9.50;;;6.33;;
38865;SDS011;62686;48.984;8.394;2022-10-17T02:29:47;11.27;;;6.00;;
38865;SDS011;62686;48.984;8.394;2022-10-17T02:32:19;8.37;;;5.57;;
38865;SDS011;62686;48.984;8.394;2022-10-17T02:34:52;12.27;;;5.57;;
38865;SDS011;62686;48.984;8.394;2022-10-17T02:37:26;12.10;;;5.17;;
38865;SDS011;62686;48.984;8.394;2022-10-17T02:39:56;11.43;;;5.60;;
38865;SDS011;62686;48.984;8.394;2022-10-17T02:42:26;12.23;;;6.07;;
38865;SDS011;62686;48.984;8.394;2022-10-17T02:44:57;10.77;;;5.67;;
38865;SDS011;62686;48.984;8.394;2022-10-17T02:47:30;9.17;;;5.50;;
38865;SDS011;62686;48.984;8.394;2022-10-17T02:50:03;13.17;;;5.90;;
38865;SDS011;62686;48.984;8.394;2022-10-17T02:52:33;8.63;;;5.90;;
38865;SDS011;62686;48.984;8.394;2022-10-17T02:55:05;11.37;;;5.60;;
38865;SDS011;62686;48.984;8.394;2022-10-17T02:57:38;8.70;;;5.60;;
38865;SDS011;62686;48.984;8.394;2022-10-17T03:00:11;10.43;;;5.10;;
38865;SDS011;62686;48.984;8.394;2022-10-17T03:02:42;6.63;;;5.20;;
38865;SDS011;62686;48.984;8.394;2022-10-17T03:05:13;11.13;;;5.57;;
38865;SDS011;62686;48.984;8.394;2022-10-17T03:07:43;8.37;;;5.90;;
38865;SDS011;62686;48.984;8.394;2022-10-17T03:10:11;8.70;;;5.97;;
38865;SDS011;62686;48.984;8.394;2022-10-17T03:12:40;11.53;;;6.13;;
38865;SDS011;62686;48.984;8.394;2022-10-17T03:15:08;8.10;;;5.67;;
38865;SDS011;62686;48.984;8.394;2022-10-17T03:17:37;10.23;;;5.80;;
38865;SDS011;62686;48.984;8.394;2022-10-17T03:20:06;11.50;;;5.47;;
38865;SDS011;62686;48.984;8.394;2022-10-17T03:22:35;9.80;;;5.90;;
38865;SDS011;62686;48.984;8.394;2022-10-17T03:25:04;12.70;;;6.17;;
38865;SDS011;62686;48.984;8.394;2022-10-17T03:27:32;12.47;;;5.90;;
38865;SDS011;62686;48.984;8.394;2022-10-17T03:30:00;11.80;;;6.20;;
38865;SDS011;62686;48.984;8.394;2022-10-17T03:32:28;11.00;;;5.60;;
38865;SDS011;62686;48.984;8.394;2022-10-17T03:34:56;8.53;;;6.47;;
38865;SDS011;62686;48.984;8.394;2022-10-17T03:37:24;10.87;;;6.37;;
38865;SDS011;62686;48.984;8.394;2022-10-17T03:39:54;14.73;;;6.90;;
38865;SDS011;62686;48.984;8.394;2022-10-17T03:42:22;10.47;;;6.10;;
38865;SDS011;62686;48.984;8.394;2022-10-17T03:44:50;11.50;;;6.50;;
38865;SDS011;62686;48.984;8.394;2022-10-17T03:47:18;11.33;;;6.50;;
38865;SDS011;62686;48.984;8.394;2022-10-17T03:49:47;8.00;;;5.70;;
38865;SDS011;62686;48.984;8.394;2022-10-17T03:52:15;7.50;;;5.77;;
38865;SDS011;62686;48.984;8.394;2022-10-17T03:54:43;7.63;;;5.90;;
38865;SDS011;62686;48.984;8.394;2022-10-17T03:57:12;11.63;;;6.23;;
38865;SDS011;62686;48.984;8.394;2022-10-17T03:59:40;7.37;;;5.50;;
38865;SDS011;62686;48.984;8.394;2022-10-17T04:02:08;15.47;;;6.37;;
38865;SDS011;62686;48.984;8.394;2022-10-17T04:04:36;9.87;;;6.30;;
38865;SDS011;62686;48.984;8.394;2022-10-17T04:07:04;13.87;;;6.30;;
38865;SDS011;62686;48.984;8.394;2022-10-17T04:09:32;7.83;;;5.53;;
38865;SDS011;62686;48.984;8.394;2022-10-17T04:12:00;15.50;;;6.17;;
38865;SDS011;62686;48.984;8.394;2022-10-17T04:14:30;11.37;;;6.20;;
38865;SDS011;62686;48.984;8.394;2022-10-17T04:16:58;8.60;;;5.67;;
38865;SDS011;62686;48.984;8.394;2022-10-17T04:19:26;11.50;;;5.90;;
38865;SDS011;62686;48.984;8.394;2022-10-17T04:21:54;8.83;;;6.53;;
38865;SDS011;62686;48.984;8.394;2022-10-17T04:24:22;15.93;;;6.30;;
38865;SDS011;62686;48.984;8.394;2022-10-17T04:26:50;8.60;;;5.97;;
38865;SDS011;62686;48.984;8.394;2022-10-17T04:29:20;10.37;;;6.10;;
38865;SDS011;62686;48.984;8.394;2022-10-17T04:31:49;8.50;;;5.90;;
38865;SDS011;62686;48.984;8.394;2022-10-17T04:34:18;17.77;;;7.27;;
38865;SDS011;62686;48.984;8.394;2022-10-17T04:36:46;11.57;;;6.57;;
38865;SDS011;62686;48.984;8.394;2022-10-17T04:39:14;13.87;;;5.87;;
38865;SDS011;62686;48.984;8.394;2022-10-17T04:41:42;8.23;;;6.17;;
38865;SDS011;62686;48.984;8.394;2022-10-17T04:44:10;12.13;;;5.93;;
38865;SDS011;62686;48.984;8.394;2022-10-17T04:46:38;10.50;;;6.90;;
38865;SDS011;62686;48.984;8.394;2022-10-17T04:49:08;11.00;;;6.03;;
38865;SDS011;62686;48.984;8.394;2022-10-17T04:51:37;10.40;;;6.70;;
38865;SDS011;62686;48.984;8.394;2022-10-17T04:54:05;8.63;;;5.80;;
38865;SDS011;62686;48.984;8.394;2022-10-17T04:56:33;12.43;;;6.27;;
38865;SDS011;62686;48.984;8.394;2022-10-17T04:59:01;8.00;;;5.70;;
38865;SDS011;62686;48.984;8.394;2022-10-17T05:01:30;11.90;;;6.23;;
38865;SDS011;62686;48.984;8.394;2022-10-17T05:03:58;8.50;;;5.53;;
38865;SDS011;62686;48.984;8.394;2022-10-17T05:06:27;11.90;;;6.10;;
38865;SDS011;62686;48.984;8.394;2022-10-17T05:08:56;6.60;;;5.67;;
38865;SDS011;62686;48.984;8.394;2022-10-17T05:11:26;12.47;;;6.30;;
38865;SDS011;62686;48.984;8.394;2022-10-17T05:13:58;8.83;;;6.63;;
38865;SDS011;62686;48.984;8.394;2022-10-17T05:16:27;9.77;;;5.83;;
38865;SDS011;62686;48.984;8.394;2022-10-17T05:18:56;8.87;;;5.87;;
38865;SDS011;62686;48.984;8.394;2022-10-17T05:21:25;13.97;;;6.73;;
38865;SDS011;62686;48.984;8.394;2022-10-17T05:23:56;13.23;;;6.50;;
38865;SDS011;62686;48.984;8.394;2022-10-17T05:26:24;13.57;;;6.50;;
38865;SDS011;62686;48.984;8.394;2022-10-17T05:28:53;10.30;;;5.93;;
38865;SDS011;62686;48.984;8.394;2022-10-17T05:31:21;10.97;;;5.90;;
38865;SDS011;62686;48.984;8.394;2022-10-17T05:33:49;10.13;;;5.30;;
38865;SDS011;62686;48.984;8.394;2022-10-17T05:36:17;7.77;;;6.20;;
38865;SDS011;62686;48.984;8.394;2022-10-17T05:38:49;6.77;;;5.40;;
38865;SDS011;62686;48.984;8.394;2022-10-17T05:41:17;10.47;;;5.90;;
38865;SDS011;62686;48.984;8.394;2022-10-17T05:43:46;8.67;;;5.67;;
38865;SDS011;62686;48.984;8.394;2022-10-17T05:46:15;5.97;;;5.10;;
38865;SDS011;62686;48.984;8.394;2022-10-17T05:48:44;8.60;;;5.57;;
38865;SDS011;62686;48.984;8.394;2022-10-17T05:51:12;8.10;;;5.23;;
38865;SDS011;62686;48.984;8.394;2022-10-17T05:53:40;12.10;;;5.63;;
38865;SDS011;62686;48.984;8.394;2022-10-17T05:56:10;8.53;;;5.40;;
38865;SDS011;62686;48.984;8.394;2022-10-17T05:58:40;8.50;;;5.70;;
38865;SDS011;62686;48.984;8.394;2022-10-17T06:01:15;7.27;;;5.20;;
38865;SDS011;62686;48.984;8.394;2022-10-17T06:03:43;10.80;;;5.60;;
38865;SDS011;62686;48.984;8.394;2022-10-17T06:06:12;9.47;;;5.47;;
38865;SDS011;62686;48.984;8.394;2022-10-17T06:08:41;8.03;;;5.37;;
38865;SDS011;62686;48.984;8.394;2022-10-17T06:11:10;11.23;;;5.60;;
38865;SDS011;62686;48.984;8.394;2022-10-17T06:13:39;6.53;;;5.20;;
38865;SDS011;62686;48.984;8.394;2022-10-17T06:16:07;15.23;;;7.40;;
38865;SDS011;62686;48.984;8.394;2022-10-17T06:18:36;13.17;;;5.83;;
38865;SDS011;62686;48.984;8.394;2022-10-17T06:21:05;7.07;;;5.73;;
38865;SDS011;62686;48.984;8.394;2022-10-17T06:23:34;10.60;;;6.63;;
38865;SDS011;62686;48.984;8.394;2022-10-17T06:26:03;12.23;;;6.20;;
38865;SDS011;62686;48.984;8.394;2022-10-17T06:28:33;8.20;;;5.60;;
38865;SDS011;62686;48.984;8.394;2022-10-17T06:31:03;13.60;;;7.67;;
38865;SDS011;62686;48.984;8.394;2022-10-17T06:33:32;12.77;;;7.47;;
38865;SDS011;62686;48.984;8.394;2022-10-17T06:36:00;12.97;;;8.27;;
38865;SDS011;62686;48.984;8.394;2022-10-17T06:38:29;10.43;;;7.63;;
38865;SDS011;62686;48.984;8.394;2022-10-17T06:41:01;17.27;;;8.93;;
38865;SDS011;62686;48.984;8.394;2022-10-17T06:43:34;10.40;;;7.20;;
38865;SDS011;62686;48.984;8.394;2022-10-17T06:46:03;13.83;;;7.80;;
38865;SDS011;62686;48.984;8.394;2022-10-17T06:48:31;11.67;;;8.07;;
38865;SDS011;62686;48.984;8.394;2022-10-17T06:51:00;20.13;;;9.00;;
38865;SDS011;62686;48.984;8.394;2022-10-17T06:53:30;16.80;;;8.73;;
38865;SDS011;62686;48.984;8.394;2022-10-17T06:55:59;12.67;;;9.27;;
38865;SDS011;62686;48.984;8.394;2022-10-17T06:58:30;14.00;;;10.00;;
38865;SDS011;62686;48.984;8.394;2022-10-17T07:01:03;13.00;;;8.50;;
38865;SDS011;62686;48.984;8.394;2022-10-17T07:03:34;15.20;;;9.60;;
38865;SDS011;62686;48.984;8.394;2022-10-17T07:06:02;13.67;;;8.87;;
38865;SDS011;62686;48.984;8.394;2022-10-17T07:08:31;19.10;;;9.40;;
38865;SDS011;62686;48.984;8.394;2022-10-17T07:11:07;14.77;;;8.93;;
38865;SDS011;62686;48.984;8.394;2022-10-17T07:13:36;12.37;;;8.43;;
38865;SDS011;62686;48.984;8.394;2022-10-17T07:16:06;13.83;;;8.83;;
38865;SDS011;62686;48.984;8.394;2022-10-17T07:18:34;12.10;;;8.67;;
38865;SDS011;62686;48.984;8.394;2022-10-17T07:21:03;12.80;;;7.97;;
38865;SDS011;62686;48.984;8.394;2022-10-17T07:23:31;10.13;;;8.20;;
38865;SDS011;62686;48.984;8.394;2022-10-17T07:26:03;13.63;;;8.57;;
38865;SDS011;62686;48.984;8.394;2022-10-17T07:28:33;15.70;;;7.43;;
38865;SDS011;62686;48.984;8.394;2022-10-17T07:31:02;23.43;;;9.30;;
38865;SDS011;62686;48.984;8.394;2022-10-17T07:33:32;13.17;;;8.60;;
38865;SDS011;62686;48.984;8.394;2022-10-17T07:36:01;18.60;;;9.17;;
38865;SDS011;62686;48.984;8.394;2022-10-17T07:38:30;11.70;;;8.53;;
38865;SDS011;62686;48.984;8.394;2022-10-17T07:40:59;20.08;;;9.85;;
38865;SDS011;62686;48.984;8.394;2022-10-17T07:43:29;11.60;;;9.20;;
38865;SDS011;62686;48.984;8.394;2022-10-17T07:45:57;13.85;;;8.90;;
38865;SDS011;62686;48.984;8.394;2022-10-17T07:48:26;22.92;;;9.25;;
38865;SDS011;62686;48.984;8.394;2022-10-17T07:50:56;16.33;;;8.52;;
38865;SDS011;62686;48.984;8.394;2022-10-17T07:53:24;17.92;;;10.10;;
38865;SDS011;62686;48.984;8.394;2022-10-17T07:55:52;14.98;;;8.68;;
38865;SDS011;62686;48.984;8.394;2022-10-17T07:58:20;16.88;;;9.25;;
38865;SDS011;62686;48.984;8.394;2022-10-17T08:00:49;15.55;;;9.30;;
38865;SDS011;62686;48.984;8.394;2022-10-17T08:03:17;13.68;;;8.20;;
38865;SDS011;62686;48.984;8.394;2022-10-17T08:05:45;14.93;;;8.60;;
38865;SDS011;62686;48.984;8.394;2022-10-17T08:08:14;12.23;;;7.72;;
38865;SDS011;62686;48.984;8.394;2022-10-17T08:10:43;15.07;;;8.18;;
38865;SDS011;62686;48.984;8.394;2022-10-17T08:13:13;15.38;;;7.88;;
38865;SDS011;62686;48.984;8.394;2022-10-17T08:15:41;18.38;;;8.15;;
38865;SDS011;62686;48.984;8.394;2022-10-17T08:18:09;16.65;;;7.40;;
38865;SDS011;62686;48.984;8.394;2022-10-17T08:20:39;17.48;;;6.75;;
38865;SDS011;62686;48.984;8.394;2022-10-17T08:23:07;16.58;;;7.82;;
38865;SDS011;62686;48.984;8.394;2022-10-17T08:25:37;16.27;;;6.82;;
38865;SDS011;62686;48.984;8.394;2022-10-17T08:28:06;12.52;;;6.22;;
38865;SDS011;62686;48.984;8.394;2022-10-17T08:30:34;14.77;;;6.47;;
38865;SDS011;62686;48.984;8.394;2022-10-17T08:33:02;9.90;;;6.07;;
38865;SDS011;62686;48.984;8.394;2022-10-17T08:35:30;11.18;;;5.90;;
38865;SDS011;62686;48.984;8.394;2022-10-17T08:37:58;15.27;;;6.15;;
38865;SDS011;62686;48.984;8.394;2022-10-17T08:40:29;7.57;;;5.00;;
38865;SDS011;62686;48.984;8.394;2022-10-17T08:43:10;8.82;;;5.32;;
38865;SDS011;62686;48.984;8.394;2022-10-17T08:45:50;8.88;;;3.63;;
38865;SDS011;62686;48.984;8.394;2022-10-17T08:48:25;9.85;;;3.30;;
38865;SDS011;62686;48.984;8.394;2022-10-17T08:50:56;11.13;;;2.42;;
38865;SDS011;62686;48.984;8.394;2022-10-17T08:53:30;8.65;;;2.65;;
38865;SDS011;62686;48.984;8.394;2022-10-17T08:56:03;4.20;;;2.55;;
38865;SDS011;62686;48.984;8.394;2022-10-17T08:58:38;12.30;;;2.55;;
38865;SDS011;62686;48.984;8.394;2022-10-17T09:01:09;6.85;;;2.67;;
38865;SDS011;62686;48.984;8.394;2022-10-17T09:03:55;5.15;;;2.75;;
38865;SDS011;62686;48.984;8.394;2022-10-17T09:06:33;10.15;;;2.67;;
38865;SDS011;62686;48.984;8.394;2022-10-17T09:09:11;9.63;;;2.60;;
38865;SDS011;62686;48.984;8.394;2022-10-17T09:11:51;6.88;;;2.35;;
38865;SDS011;62686;48.984;8.394;2022-10-17T09:14:32;4.30;;;1.98;;
38865;SDS011;62686;48.984;8.394;2022-10-17T09:17:18;12.35;;;2.70;;
38865;SDS011;62686;48.984;8.394;2022-10-17T09:19:58;6.55;;;2.50;;
38865;SDS011;62686;48.984;8.394;2022-10-17T09:22:29;5.63;;;2.20;;
38865;SDS011;62686;48.984;8.394;2022-10-17T09:25:05;11.13;;;2.30;;
38865;SDS011;62686;48.984;8.394;2022-10-17T09:27:39;6.88;;;2.33;;
38865;SDS011;62686;48.984;8.394;2022-10-17T09:30:22;7.43;;;2.20;;
38865;SDS011;62686;48.984;8.394;2022-10-17T09:33:12;5.30;;;2.13;;
38865;SDS011;62686;48.984;8.394;2022-10-17T09:35:53;8.73;;;2.30;;
38865;SDS011;62686;48.984;8.394;2022-10-17T09:38:23;10.93;;;2.80;;
38865;SDS011;62686;48.984;8.394;2022-10-17T09:40:58;5.90;;;2.50;;
38865;SDS011;62686;48.984;8.394;2022-10-17T09:43:28;6.63;;;2.22;;
38865;SDS011;62686;48.984;8.394;2022-10-17T09:46:11;11.82;;;2.38;;
38865;SDS011;62686;48.984;8.394;2022-10-17T09:48:47;10.10;;;2.33;;
38865;SDS011;62686;48.984;8.394;2022-10-17T09:51:18;6.75;;;2.42;;
38865;SDS011;62686;48.984;8.394;2022-10-17T09:53:52;7.32;;;2.15;;
38865;SDS011;62686;48.984;8.394;2022-10-17T09:56:23;4.32;;;2.13;;
38865;SDS011;62686;48.984;8.394;2022-10-17T09:58:52;4.60;;;2.35;;
38865;SDS011;62686;48.984;8.394;2022-10-17T10:01:26;4.20;;;2.03;;
38865;SDS011;62686;48.984;8.394;2022-10-17T10:04:08;4.75;;;2.30;;
38865;SDS011;62686;48.984;8.394;2022-10-17T10:06:38;5.75;;;2.20;;
38865;SDS011;62686;48.984;8.394;2022-10-17T10:09:16;4.85;;;2.33;;
38865;SDS011;62686;48.984;8.394;2022-10-17T10:11:49;8.05;;;2.55;;
38865;SDS011;62686;48.984;8.394;2022-10-17T10:14:21;5.68;;;1.90;;
38865;SDS011;62686;48.984;8.394;2022-10-17T10:16:52;4.75;;;1.80;;
38865;SDS011;62686;48.984;8.394;2022-10-17T10:19:26;7.15;;;2.28;;
38865;SDS011;62686;48.984;8.394;2022-10-17T10:21:57;4.13;;;2.20;;
38865;SDS011;62686;48.984;8.394;2022-10-17T10:24:26;5.13;;;2.13;;
38865;SDS011;62686;48.984;8.394;2022-10-17T10:26:56;11.10;;;2.30;;
38865;SDS011;62686;48.984;8.394;2022-10-17T10:29:27;8.20;;;2.50;;
38865;SDS011;62686;48.984;8.394;2022-10-17T10:32:07;10.30;;;2.00;;
38865;SDS011;62686;48.984;8.394;2022-10-17T10:34:37;3.65;;;1.85;;
38865;SDS011;62686;48.984;8.394;2022-10-17T10:37:15;8.55;;;2.00;;
38865;SDS011;62686;48.984;8.394;2022-10-17T10:39:46;8.05;;;2.38;;
38865;SDS011;62686;48.984;8.394;2022-10-17T10:42:17;10.32;;;1.95;;
38865;SDS011;62686;48.984;8.394;2022-10-17T10:44:49;5.38;;;2.45;;
38865;SDS011;62686;48.984;8.394;2022-10-17T10:47:21;7.13;;;1.98;;
38865;SDS011;62686;48.984;8.394;2022-10-17T10:49:52;4.97;;;1.80;;
38865;SDS011;62686;48.984;8.394;2022-10-17T10:52:36;5.10;;;1.80;;
38865;SDS011;62686;48.984;8.394;2022-10-17T10:55:14;4.53;;;1.90;;
38865;SDS011;62686;48.984;8.394;2022-10-17T10:57:48;5.38;;;1.90;;
38865;SDS011;62686;48.984;8.394;2022-10-17T11:00:20;8.52;;;1.90;;
38865;SDS011;62686;48.984;8.394;2022-10-17T11:02:56;5.65;;;1.83;;
38865;SDS011;62686;48.984;8.394;2022-10-17T11:05:34;5.00;;;1.75;;
38865;SDS011;62686;48.984;8.394;2022-10-17T11:08:11;6.63;;;1.80;;
38865;SDS011;62686;48.984;8.394;2022-10-17T11:10:52;5.10;;;1.80;;
38865;SDS011;62686;48.984;8.394;2022-10-17T11:13:29;7.32;;;1.70;;
38865;SDS011;62686;48.984;8.394;2022-10-17T11:16:01;4.28;;;1.60;;
38865;SDS011;62686;48.984;8.394;2022-10-17T11:18:44;6.28;;;1.92;;
38865;SDS011;62686;48.984;8.394;2022-10-17T11:21:15;4.05;;;1.98;;
38865;SDS011;62686;48.984;8.394;2022-10-17T11:23:47;6.05;;;2.10;;
38865;SDS011;62686;48.984;8.394;2022-10-17T11:26:25;3.90;;;1.50;;
38865;SDS011;62686;48.984;8.394;2022-10-17T11:28:55;4.32;;;1.77;;
38865;SDS011;62686;48.984;8.394;2022-10-17T11:31:26;4.50;;;1.60;;
38865;SDS011;62686;48.984;8.394;2022-10-17T11:34:00;9.93;;;1.85;;
38865;SDS011;62686;48.984;8.394;2022-10-17T11:36:33;8.80;;;1.73;;
38865;SDS011;62686;48.984;8.394;2022-10-17T11:39:04;3.85;;;1.77;;
38865;SDS011;62686;48.984;8.394;2022-10-17T11:41:39;11.77;;;2.28;;
38865;SDS011;62686;48.984;8.394;2022-10-17T11:44:17;6.05;;;1.70;;
38865;SDS011;62686;48.984;8.394;2022-10-17T11:46:49;5.53;;;1.73;;
38865;SDS011;62686;48.984;8.394;2022-10-17T11:49:24;2.55;;;1.48;;
38865;SDS011;62686;48.984;8.394;2022-10-17T11:51:59;4.40;;;1.67;;
38865;SDS011;62686;48.984;8.394;2022-10-17T11:54:49;5.93;;;1.58;;
38865;SDS011;62686;48.984;8.394;2022-10-17T11:57:28;5.45;;;1.30;;
38865;SDS011;62686;48.984;8.394;2022-10-17T12:00:10;8.82;;;1.52;;
38865;SDS011;62686;48.984;8.394;2022-10-17T12:02:49;3.17;;;1.50;;
38865;SDS011;62686;48.984;8.394;2022-10-17T12:05:27;4.97;;;1.58;;
38865;SDS011;62686;48.984;8.394;2022-10-17T12:08:03;3.83;;;1.80;;
38865;SDS011;62686;48.984;8.394;2022-10-17T12:10:38;5.78;;;1.23;;
38865;SDS011;62686;48.984;8.394;2022-10-17T12:16:36;5.85;;;1.67;;
38865;SDS011;62686;48.984;8.394;2022-10-17T12:22:01;4.57;;;1.80;;
38865;SDS011;62686;48.984;8.394;2022-10-17T12:24:33;5.55;;;1.60;;
38865;SDS011;62686;48.984;8.394;2022-10-17T12:30:33;8.82;;;1.65;;
38865;SDS011;62686;48.984;8.394;2022-10-17T12:33:03;7.65;;;1.70;;
38865;SDS011;62686;48.984;8.394;2022-10-17T12:35:40;7.53;;;1.85;;
38865;SDS011;62686;48.984;8.394;2022-10-17T12:40:56;9.20;;;1.60;;
38865;SDS011;62686;48.984;8.394;2022-10-17T12:43:45;5.32;;;1.70;;
38865;SDS011;62686;48.984;8.394;2022-10-17T12:46:44;2.08;;;1.40;;
38865;SDS011;62686;48.984;8.394;2022-10-17T12:49:35;8.38;;;1.63;;
38865;SDS011;62686;48.984;8.394;2022-10-17T12:52:15;9.73;;;1.70;;
38865;SDS011;62686;48.984;8.394;2022-10-17T12:54:52;6.10;;;1.60;;
38865;SDS011;62686;48.984;8.394;2022-10-17T12:57:39;3.15;;;1.38;;
38865;SDS011;62686;48.984;8.394;2022-10-17T13:00:13;3.72;;;1.50;;
38865;SDS011;62686;48.984;8.394;2022-10-17T13:02:52;4.43;;;1.30;;
38865;SDS011;62686;48.984;8.394;2022-10-17T13:05:26;3.40;;;1.50;;
38865;SDS011;62686;48.984;8.394;2022-10-17T13:07:58;4.80;;;1.50;;
38865;SDS011;62686;48.984;8.394;2022-10-17T13:10:31;6.82;;;1.60;;
38865;SDS011;62686;48.984;8.394;2022-10-17T13:13:05;4.80;;;1.60;;
38865;SDS011;62686;48.984;8.394;2022-10-17T13:15:39;6.82;;;1.40;;
38865;SDS011;62686;48.984;8.394;2022-10-17T13:18:16;9.80;;;1.77;;
38865;SDS011;62686;48.984;8.394;2022-10-17T13:20:54;7.43;;;1.60;;
38865;SDS011;62686;48.984;8.394;2022-10-17T13:23:24;4.65;;;1.48;;
38865;SDS011;62686;48.984;8.394;2022-10-17T13:26:04;4.57;;;1.33;;
38865;SDS011;62686;48.984;8.394;2022-10-17T13:28:45;4.78;;;1.52;;
38865;SDS011;62686;48.984;8.394;2022-10-17T13:31:28;9.38;;;1.60;;
38865;SDS011;62686;48.984;8.394;2022-10-17T13:33:58;5.45;;;1.45;;
38865;SDS011;62686;48.984;8.394;2022-10-17T13:36:27;4.07;;;1.48;;
38865;SDS011;62686;48.984;8.394;2022-10-17T13:38:57;4.57;;;1.33;;
38865;SDS011;62686;48.984;8.394;2022-10-17T13:41:28;11.43;;;1.80;;
38865;SDS011;62686;48.984;8.394;2022-10-17T13:44:01;4.65;;;1.30;;
38865;SDS011;62686;48.984;8.394;2022-10-17T13:46:34;3.63;;;1.58;;
38865;SDS011;62686;48.984;8.394;2022-10-17T13:49:08;2.17;;;1.75;;
38865;SDS011;62686;48.984;8.394;2022-10-17T13:51:41;5.78;;;1.55;;
38865;SDS011;62686;48.984;8.394;2022-10-17T13:57:15;11.88;;;1.60;;
38865;SDS011;62686;48.984;8.394;2022-10-17T13:59:46;6.72;;;1.67;;
38865;SDS011;62686;48.984;8.394;2022-10-17T14:02:18;7.07;;;1.52;;
38865;SDS011;62686;48.984;8.394;2022-10-17T14:04:57;5.25;;;1.60;;
38865;SDS011;62686;48.984;8.394;2022-10-17T14:07:45;3.97;;;1.50;;
38865;SDS011;62686;48.984;8.394;2022-10-17T14:10:35;3.47;;;1.63;;
38865;SDS011;62686;48.984;8.394;2022-10-17T14:13:06;5.32;;;1.60;;
38865;SDS011;62686;48.984;8.394;2022-10-17T14:15:44;2.40;;;1.42;;
38865;SDS011;62686;48.984;8.394;2022-10-17T14:18:15;4.82;;;1.60;;
38865;SDS011;62686;48.984;8.394;2022-10-17T14:20:46;5.88;;;1.60;;
38865;SDS011;62686;48.984;8.394;2022-10-17T14:23:36;8.40;;;1.90;;
38865;SDS011;62686;48.984;8.394;2022-10-17T14:26:08;4.78;;;1.65;;
38865;SDS011;62686;48.984;8.394;2022-10-17T14:28:43;6.93;;;1.67;;
38865;SDS011;62686;48.984;8.394;2022-10-17T14:31:20;5.22;;;1.58;;
38865;SDS011;62686;48.984;8.394;2022-10-17T14:33:55;5.15;;;1.70;;
38865;SDS011;62686;48.984;8.394;2022-10-17T14:36:31;3.75;;;1.90;;
38865;SDS011;62686;48.984;8.394;2022-10-17T14:39:02;6.18;;;1.55;;
38865;SDS011;62686;48.984;8.394;2022-10-17T14:41:34;4.57;;;1.92;;
38865;SDS011;62686;48.984;8.394;2022-10-17T14:44:14;7.85;;;2.00;;
38865;SDS011;62686;48.984;8.394;2022-10-17T14:46:47;6.30;;;2.00;;
38865;SDS011;62686;48.984;8.394;2022-10-17T14:49:20;7.80;;;2.00;;
38865;SDS011;62686;48.984;8.394;2022-10-17T14:54:53;5.40;;;2.00;;
38865;SDS011;62686;48.984;8.394;2022-10-17T14:57:23;2.95;;;1.80;;
38865;SDS011;62686;48.984;8.394;2022-10-17T14:59:57;7.45;;;1.65;;
38865;SDS011;62686;48.984;8.394;2022-10-17T15:02:26;4.25;;;1.70;;
38865;SDS011;62686;48.984;8.394;2022-10-17T15:04:55;3.05;;;1.80;;
38865;SDS011;62686;48.984;8.394;2022-10-17T15:07:23;3.78;;;2.40;;
38865;SDS011;62686;48.984;8.394;2022-10-17T15:09:51;6.70;;;2.10;;
38865;SDS011;62686;48.984;8.394;2022-10-17T15:12:21;2.40;;;1.80;;
38865;SDS011;62686;48.984;8.394;2022-10-17T15:14:50;4.70;;;1.92;;
38865;SDS011;62686;48.984;8.394;2022-10-17T15:17:21;3.42;;;1.92;;
38865;SDS011;62686;48.984;8.394;2022-10-17T15:19:51;6.72;;;1.67;;
38865;SDS011;62686;48.984;8.394;2022-10-17T15:22:19;3.30;;;1.52;;
38865;SDS011;62686;48.984;8.394;2022-10-17T15:24:47;3.45;;;1.85;;
38865;SDS011;62686;48.984;8.394;2022-10-17T15:27:16;3.50;;;2.03;;
38865;SDS011;62686;48.984;8.394;2022-10-17T15:29:48;7.40;;;2.13;;
38865;SDS011;62686;48.984;8.394;2022-10-17T15:32:18;3.22;;;2.17;;
38865;SDS011;62686;48.984;8.394;2022-10-17T15:34:47;5.53;;;2.10;;